< < Back
Terminal Aerodrome Forecast


Current Version              Previous Versions:   1  2  3  4  5  6  7  8  9  

Terminal Aerodrome Forecast

853
FTUS42 KMLB 021902 AAA
TAFDAB
TAF AMD
KDAB 021902Z 0219/0318 30010KT P6SM VCTS SCT045CB SCT070 BKN100
      TEMPO 0219/0221 VRB15G30KT 3SM +TSRA BKN030CB
     FM030000 20005KT P6SM SCT050 BKN100 BKN250
     FM030600 21003KT P6SM SCT250
     FM031400 24006KT P6SM SCT025 SCT250=



Latest METAR

967
SAUS80 KWBC 030800 RRB
MTRDAB
METAR KDAB 030753Z 18003KT 10SM CLR 22/21 A3007 RMK AO2 SLP182
T02170206


USA.gov is the U.S. government's official web portal to all federal, state and local government web resources and services.